Time;durP1;ratioP1;P1;durP2;ratioP2;P2;SDS_P1;SDS_P2;PMS_P1;PMS_P2;Temp;Humidity;BMP_temperature;BMP_pressure;BME280_temperature;BME280_humidity;BME280_pressure;Samples;Min_cycle;Max_cycle;Signal;HPM_P1;HPM_P2
2021/07/17 00:00:27;;;;;;;18.97;17.37;;;22.50;1.00;;;;;;4982217;28;20527;-75
2021/07/17 00:02:55;;;;;;;16.87;15.47;;;22.50;1.00;;;;;;4984972;28;20494;-76
2021/07/17 00:05:23;;;;;;;18.53;16.50;;;22.50;1.00;;;;;;4983530;28;20457;-77
2021/07/17 00:07:50;;;;;;;18.17;16.47;;;22.60;1.00;;;;;;4969197;28;20428;-76
2021/07/17 00:10:19;;;;;;;19.97;17.03;;;22.60;1.00;;;;;;4963419;28;20452;-75
2021/07/17 00:12:46;;;;;;;17.53;15.83;;;22.60;1.00;;;;;;4969461;28;20453;-76
2021/07/17 00:15:16;;;;;;;17.80;16.30;;;22.60;1.00;;;;;;4959545;28;20414;-77
2021/07/17 00:17:42;;;;;;;18.87;17.00;;;22.60;1.00;;;;;;4970106;28;20424;-77
2021/07/17 00:20:13;;;;;;;17.57;15.77;;;22.60;1.00;;;;;;4968879;28;20462;-75
2021/07/17 00:22:39;;;;;;;17.40;15.70;;;22.70;1.00;;;;;;4951719;28;20457;-77
2021/07/17 00:25:08;;;;;;;18.10;16.20;;;22.70;1.00;;;;;;4956281;28;20485;-78
2021/07/17 00:27:35;;;;;;;17.50;15.80;;;22.70;1.00;;;;;;4962695;28;20523;-78
2021/07/17 00:30:02;;;;;;;18.20;16.23;;;22.60;1.00;;;;;;4961190;28;20536;-78
2021/07/17 00:32:29;;;;;;;18.97;15.40;;;22.60;1.00;;;;;;4956699;28;20551;-78
2021/07/17 00:34:56;;;;;;;18.83;15.57;;;22.60;1.00;;;;;;4959485;28;20428;-77
2021/07/17 00:37:24;;;;;;;16.93;15.23;;;22.60;1.00;;;;;;4966295;28;20444;-77
2021/07/17 00:39:50;;;;;;;16.33;14.83;;;22.60;1.00;;;;;;4954671;28;20543;-78
2021/07/17 00:42:17;;;;;;;15.37;13.97;;;22.60;1.00;;;;;;4958656;28;20534;-76
2021/07/17 00:44:44;;;;;;;19.47;17.70;;;22.60;1.00;;;;;;4964802;28;20543;-77
2021/07/17 00:47:13;;;;;;;16.03;14.20;;;22.60;1.00;;;;;;4962861;28;20428;-78
2021/07/17 00:49:40;;;;;;;16.27;14.87;;;22.60;1.00;;;;;;4955978;28;20527;-77
2021/07/17 00:52:07;;;;;;;15.93;14.50;;;22.60;1.00;;;;;;4958640;28;20550;-78
2021/07/17 00:54:36;;;;;;;15.23;13.90;;;22.60;1.00;;;;;;4967715;28;20482;-78
2021/07/17 00:57:04;;;;;;;14.97;13.60;;;22.60;1.00;;;;;;4949669;28;20562;-78
2021/07/17 00:59:36;;;;;;;16.00;14.30;;;22.60;1.00;;;;;;4957014;28;20474;-78
2021/07/17 01:02:04;;;;;;;14.77;13.37;;;22.60;1.00;;;;;;4965867;28;20518;-77
2021/07/17 01:04:32;;;;;;;15.20;13.80;;;22.60;1.00;;;;;;4960648;28;20573;-79
2021/07/17 01:07:00;;;;;;;16.20;14.60;;;22.60;1.00;;;;;;4959513;28;20469;-78
2021/07/17 01:09:28;;;;;;;15.40;13.63;;;22.60;1.00;;;;;;4956311;28;20440;-76
2021/07/17 01:11:56;;;;;;;15.70;14.30;;;22.50;1.00;;;;;;4965820;28;20550;-77
2021/07/17 01:14:24;;;;;;;15.93;14.43;;;22.50;1.00;;;;;;4966643;28;20471;-77
2021/07/17 01:16:50;;;;;;;18.67;14.67;;;22.50;1.00;;;;;;4954633;28;23533;-78
2021/07/17 01:19:23;;;;;;;18.63;14.43;;;22.50;1.00;;;;;;4960325;28;20464;-76
2021/07/17 01:21:51;;;;;;;16.03;14.57;;;22.60;1.00;;;;;;4959838;28;20473;-76
2021/07/17 01:24:18;;;;;;;16.30;14.60;;;22.60;1.00;;;;;;4945976;28;20439;-75
2021/07/17 01:26:47;;;;;;;14.23;12.93;;;22.60;1.00;;;;;;4966426;28;20557;-76
2021/07/17 01:29:14;;;;;;;15.63;14.00;;;22.50;1.00;;;;;;4963630;28;20539;-77
2021/07/17 01:31:41;;;;;;;15.30;14.00;;;22.50;1.00;;;;;;4965519;28;20430;-77
2021/07/17 01:34:08;;;;;;;16.13;13.83;;;22.50;1.00;;;;;;4964195;28;20440;-77
2021/07/17 01:36:36;;;;;;;15.37;13.97;;;22.50;1.00;;;;;;4963455;28;20459;-78
2021/07/17 01:39:05;;;;;;;15.13;13.30;;;22.50;1.00;;;;;;4964277;28;20424;-78
2021/07/17 01:41:31;;;;;;;14.33;12.93;;;22.50;1.00;;;;;;4963961;28;20423;-78
2021/07/17 01:43:58;;;;;;;13.93;12.57;;;22.50;1.00;;;;;;4964229;28;20444;-78
2021/07/17 01:46:25;;;;;;;15.30;13.77;;;22.50;1.00;;;;;;4959421;28;23301;-78
2021/07/17 01:48:53;;;;;;;13.93;12.70;;;22.40;1.00;;;;;;4962328;28;20486;-78
2021/07/17 01:51:20;;;;;;;13.97;12.40;;;22.40;1.00;;;;;;4955463;28;20499;-77
2021/07/17 01:53:48;;;;;;;14.73;13.40;;;22.50;1.00;;;;;;4969197;28;20523;-78
2021/07/17 01:56:16;;;;;;;13.93;12.60;;;22.50;1.00;;;;;;4958141;28;20437;-77
2021/07/17 01:58:43;;;;;;;14.63;13.23;;;22.50;1.00;;;;;;4958350;28;20464;-78
2021/07/17 02:01:10;;;;;;;13.13;11.93;;;22.50;1.00;;;;;;4954814;28;20556;-77
2021/07/17 02:03:37;;;;;;;15.03;13.17;;;22.50;1.00;;;;;;4958768;28;20453;-77
2021/07/17 02:06:04;;;;;;;12.97;11.77;;;22.50;1.00;;;;;;4956052;28;20460;-78
2021/07/17 02:08:32;;;;;;;18.73;14.67;;;22.50;1.00;;;;;;4958648;28;20556;-78
2021/07/17 02:10:58;;;;;;;14.03;12.73;;;22.40;1.00;;;;;;4957901;28;21558;-78
2021/07/17 02:13:28;;;;;;;14.30;12.80;;;22.50;1.00;;;;;;4962112;28;20566;-76
2021/07/17 02:15:56;;;;;;;16.27;13.07;;;22.40;1.00;;;;;;4963059;28;20540;-77
2021/07/17 02:18:25;;;;;;;13.87;12.50;;;22.40;1.00;;;;;;4956891;28;20463;-75
2021/07/17 02:20:52;;;;;;;14.03;12.63;;;22.40;1.00;;;;;;4966153;28;20492;-79
2021/07/17 02:23:19;;;;;;;16.50;13.57;;;22.40;1.00;;;;;;4958181;28;20535;-76
2021/07/17 02:25:46;;;;;;;14.73;13.33;;;22.30;1.00;;;;;;4962568;28;20425;-75
2021/07/17 02:28:13;;;;;;;14.87;13.43;;;22.30;1.00;;;;;;4963516;28;20485;-75
2021/07/17 02:30:41;;;;;;;14.90;13.40;;;22.30;1.00;;;;;;4960073;28;20436;-77
2021/07/17 02:33:08;;;;;;;14.37;13.10;;;22.20;1.00;;;;;;4942096;28;20555;-77
2021/07/17 02:35:35;;;;;;;15.33;14.00;;;22.20;1.00;;;;;;4958928;28;21481;-78
2021/07/17 02:38:01;;;;;;;15.00;13.57;;;22.20;1.00;;;;;;4943326;28;20413;-78
2021/07/17 02:40:28;;;;;;;14.97;13.50;;;22.20;1.00;;;;;;4953800;28;21320;-78
2021/07/17 02:42:55;;;;;;;15.57;14.07;;;22.20;1.00;;;;;;4962410;28;21229;-78
2021/07/17 02:45:21;;;;;;;15.73;14.03;;;22.10;1.00;;;;;;4960759;28;20448;-76
2021/07/17 02:47:50;;;;;;;15.40;14.00;;;22.10;1.00;;;;;;4966302;28;20459;-76
2021/07/17 02:50:18;;;;;;;15.00;13.60;;;22.10;1.00;;;;;;4964913;28;20447;-77
2021/07/17 02:52:45;;;;;;;14.90;13.50;;;22.10;1.00;;;;;;4966867;28;20529;-78
2021/07/17 02:55:14;;;;;;;14.57;12.80;;;22.00;1.00;;;;;;4961483;28;21048;-76
2021/07/17 02:57:41;;;;;;;14.63;13.20;;;22.00;1.00;;;;;;4967527;28;21085;-77
2021/07/17 03:00:10;;;;;;;15.27;11.93;;;22.00;1.00;;;;;;4956014;28;20472;-78
2021/07/17 03:02:37;;;;;;;14.47;12.97;;;21.90;1.00;;;;;;4948257;28;20479;-78
2021/07/17 03:05:06;;;;;;;15.00;13.40;;;22.00;1.00;;;;;;4963531;28;20495;-77
2021/07/17 03:07:33;;;;;;;15.03;13.63;;;22.00;1.00;;;;;;4964520;28;20484;-77
2021/07/17 03:10:00;;;;;;;15.40;13.07;;;22.10;1.00;;;;;;4982328;28;20474;-77
2021/07/17 03:12:27;;;;;;;14.23;12.83;;;22.10;1.00;;;;;;4970565;28;20417;-78
2021/07/17 03:14:54;;;;;;;15.93;14.50;;;22.20;1.00;;;;;;4994341;28;20451;-77
2021/07/17 03:17:21;;;;;;;14.80;13.40;;;22.20;1.00;;;;;;4991824;28;20408;-75
2021/07/17 03:19:48;;;;;;;14.87;13.30;;;22.20;1.00;;;;;;4991436;28;20481;-75
2021/07/17 03:22:17;;;;;;;14.10;12.90;;;22.30;1.00;;;;;;4987034;28;20433;-76
2021/07/17 03:24:43;;;;;;;14.00;12.80;;;22.30;1.00;;;;;;4995032;28;20415;-76
2021/07/17 03:27:10;;;;;;;16.03;13.87;;;22.30;1.00;;;;;;4989918;28;20420;-75
2021/07/17 03:29:36;;;;;;;14.80;13.13;;;22.30;1.00;;;;;;4989169;27;20431;-76
2021/07/17 03:32:04;;;;;;;14.37;13.00;;;22.30;1.00;;;;;;4973252;28;20427;-74
2021/07/17 03:34:31;;;;;;;15.20;13.83;;;22.30;1.00;;;;;;4986298;28;20502;-74
2021/07/17 03:36:57;;;;;;;14.43;13.13;;;22.30;1.00;;;;;;4984633;28;20420;-76
2021/07/17 03:39:26;;;;;;;14.87;13.07;;;22.30;1.00;;;;;;4984692;28;20443;-77
2021/07/17 03:41:53;;;;;;;13.23;12.13;;;22.30;1.00;;;;;;4976517;28;20514;-75
2021/07/17 03:44:24;;;;;;;13.53;12.03;;;22.40;1.00;;;;;;4979201;28;20452;-75
2021/07/17 03:46:50;;;;;;;12.93;11.73;;;22.40;1.00;;;;;;4977190;28;20446;-76
2021/07/17 03:49:17;;;;;;;13.33;12.03;;;22.40;1.00;;;;;;4969822;28;20481;-75
2021/07/17 03:51:44;;;;;;;12.73;11.70;;;22.50;1.00;;;;;;4971081;28;20447;-77
2021/07/17 03:54:11;;;;;;;13.90;12.43;;;22.50;1.00;;;;;;4973280;28;20407;-75
2021/07/17 03:56:39;;;;;;;14.70;13.20;;;22.50;1.00;;;;;;4975165;28;21452;-77
2021/07/17 03:59:05;;;;;;;13.40;12.10;;;22.60;1.00;;;;;;4971003;28;20453;-77
2021/07/17 04:01:32;;;;;;;14.80;12.03;;;22.60;1.00;;;;;;4966512;28;20495;-77
2021/07/17 04:03:59;;;;;;;14.63;13.23;;;22.60;1.00;;;;;;4959756;28;20512;-76
2021/07/17 04:06:25;;;;;;;13.57;12.17;;;22.70;1.00;;;;;;4957422;28;20555;-77
2021/07/17 04:08:52;;;;;;;13.10;11.43;;;22.70;1.00;;;;;;4960723;28;20469;-77
2021/07/17 04:11:19;;;;;;;12.90;11.60;;;22.70;1.00;;;;;;4956437;28;20579;-75
2021/07/17 04:13:47;;;;;;;13.23;12.10;;;22.70;1.00;;;;;;4957173;28;20549;-76
2021/07/17 04:16:14;;;;;;;14.80;11.90;;;22.70;1.00;;;;;;4959095;28;20418;-76
2021/07/17 04:18:40;;;;;;;13.40;11.53;;;22.80;1.00;;;;;;4959877;28;20455;-76
2021/07/17 04:21:07;;;;;;;12.77;11.57;;;22.90;1.00;;;;;;4944016;28;20609;-76
2021/07/17 04:23:34;;;;;;;12.77;11.57;;;22.80;1.00;;;;;;4959516;28;20535;-78
2021/07/17 04:26:00;;;;;;;12.13;10.70;;;22.80;1.00;;;;;;4957766;28;20511;-77
2021/07/17 04:28:27;;;;;;;13.27;11.97;;;22.80;1.00;;;;;;4964151;28;23242;-76
2021/07/17 04:30:56;;;;;;;13.80;12.50;;;22.80;1.00;;;;;;4961653;28;20473;-75
2021/07/17 04:33:23;;;;;;;12.77;11.67;;;22.80;1.00;;;;;;4961346;28;20467;-76
2021/07/17 04:35:50;;;;;;;13.83;12.53;;;22.70;1.00;;;;;;4960688;28;20595;-75
2021/07/17 04:38:17;;;;;;;13.23;12.03;;;22.70;1.00;;;;;;4963179;28;20543;-77
2021/07/17 04:40:44;;;;;;;13.13;11.97;;;22.70;1.00;;;;;;4957156;28;20440;-77
2021/07/17 04:43:11;;;;;;;13.37;12.07;;;22.70;1.00;;;;;;4961354;28;20434;-76
2021/07/17 04:45:38;;;;;;;13.37;12.17;;;22.70;1.00;;;;;;4958569;28;21250;-78
2021/07/17 04:48:06;;;;;;;14.30;13.10;;;22.70;1.00;;;;;;4960960;28;20503;-77
2021/07/17 04:50:34;;;;;;;13.80;12.40;;;22.70;1.00;;;;;;4945833;28;20468;-79
2021/07/17 04:53:01;;;;;;;17.03;13.17;;;22.80;1.00;;;;;;4957946;28;20496;-77
2021/07/17 04:55:28;;;;;;;13.30;12.00;;;22.80;1.00;;;;;;4955506;28;21680;-79
2021/07/17 04:57:55;;;;;;;14.60;13.20;;;22.80;1.00;;;;;;4956909;28;20459;-79
2021/07/17 05:00:22;;;;;;;13.47;12.17;;;22.90;1.00;;;;;;4958092;28;20468;-79
2021/07/17 05:02:50;;;;;;;16.13;14.67;;;22.90;1.00;;;;;;4962317;28;20446;-79
2021/07/17 05:05:19;;;;;;;14.40;13.10;;;22.90;1.00;;;;;;4959656;28;20478;-77
2021/07/17 05:07:45;;;;;;;15.27;13.50;;;23.00;1.00;;;;;;4958515;28;20504;-79
2021/07/17 05:10:13;;;;;;;15.47;14.17;;;23.00;1.00;;;;;;4957586;28;21171;-77
2021/07/17 05:12:40;;;;;;;15.70;14.07;;;23.00;1.00;;;;;;4957997;28;20451;-78
2021/07/17 05:15:10;;;;;;;16.27;13.17;;;23.00;1.00;;;;;;4962380;28;20453;-75
2021/07/17 05:17:36;;;;;;;16.60;15.00;;;23.00;1.00;;;;;;4969775;28;20973;-78
2021/07/17 05:20:04;;;;;;;18.07;16.27;;;23.10;1.00;;;;;;4969190;28;20479;-77
2021/07/17 05:22:32;;;;;;;15.03;13.60;;;23.10;1.00;;;;;;4973018;28;20580;-78
2021/07/17 05:24:59;;;;;;;16.97;15.27;;;23.10;1.00;;;;;;4971271;28;20544;-77
2021/07/17 05:27:25;;;;;;;16.33;14.90;;;23.20;1.00;;;;;;4985575;28;20493;-79
2021/07/17 05:29:52;;;;;;;17.50;14.40;;;23.20;1.00;;;;;;4980394;28;20456;-80
2021/07/17 05:32:19;;;;;;;17.40;15.73;;;23.30;1.00;;;;;;4986590;28;20444;-78
2021/07/17 05:34:46;;;;;;;18.07;16.27;;;23.40;1.00;;;;;;4982584;28;20452;-77
2021/07/17 05:37:13;;;;;;;15.20;13.90;;;23.40;1.00;;;;;;4966020;28;20474;-78
2021/07/17 05:39:41;;;;;;;18.20;16.57;;;23.50;1.00;;;;;;4986067;28;20505;-77
2021/07/17 05:42:08;;;;;;;18.20;16.50;;;23.60;1.00;;;;;;4999125;28;20487;-78
2021/07/17 05:44:34;;;;;;;18.33;16.20;;;23.60;1.00;;;;;;4998259;28;20454;-78
2021/07/17 05:47:01;;;;;;;19.63;17.80;;;23.60;1.00;;;;;;4991643;28;20434;-78
2021/07/17 05:49:28;;;;;;;17.03;15.43;;;23.70;1.00;;;;;;5006680;28;20439;-77
2021/07/17 05:51:54;;;;;;;19.37;17.27;;;23.80;1.00;;;;;;4991993;28;20441;-78
2021/07/17 05:54:21;;;;;;;17.80;15.97;;;23.90;1.00;;;;;;4995261;28;20809;-76
2021/07/17 05:56:49;;;;;;;18.83;16.80;;;24.00;1.00;;;;;;4990377;28;20445;-77
2021/07/17 05:59:15;;;;;;;18.70;17.10;;;24.10;1.00;;;;;;4997149;28;20409;-77
2021/07/17 06:01:42;;;;;;;19.37;17.53;;;24.20;1.00;;;;;;4991878;28;20468;-79
2021/07/17 06:04:09;;;;;;;18.67;16.73;;;24.30;1.00;;;;;;4995784;28;20464;-78
2021/07/17 06:06:36;;;;;;;19.93;17.87;;;24.30;1.00;;;;;;4983900;28;20406;-77
2021/07/17 06:09:03;;;;;;;19.20;17.30;;;24.30;1.00;;;;;;4989362;28;20664;-79
2021/07/17 06:11:29;;;;;;;19.93;18.10;;;24.40;1.00;;;;;;4984420;28;20477;-79
2021/07/17 06:13:57;;;;;;;20.23;18.40;;;24.30;1.00;;;;;;4964565;28;20960;-78
2021/07/17 06:16:24;;;;;;;22.63;19.23;;;24.40;1.00;;;;;;4974834;28;20493;-78
2021/07/17 06:18:51;;;;;;;19.33;17.53;;;24.40;1.00;;;;;;4985532;28;20435;-77
2021/07/17 06:21:18;;;;;;;20.27;18.40;;;24.40;1.00;;;;;;4967808;28;20458;-78
2021/07/17 06:23:44;;;;;;;21.33;19.23;;;24.50;1.00;;;;;;4972583;28;20428;-79
2021/07/17 06:26:11;;;;;;;20.13;18.23;;;24.50;1.00;;;;;;4956686;28;20467;-79
2021/07/17 06:28:39;;;;;;;22.77;20.77;;;24.50;1.00;;;;;;4978839;28;20471;-77
2021/07/17 06:31:07;;;;;;;22.50;20.10;;;24.40;1.00;;;;;;4983602;28;20522;-77
2021/07/17 06:33:34;;;;;;;22.33;20.00;;;24.40;1.00;;;;;;4982039;28;20807;-77
2021/07/17 06:36:03;;;;;;;22.17;19.97;;;24.30;1.00;;;;;;4979596;28;20434;-76
2021/07/17 06:38:33;;;;;;;22.80;20.77;;;24.20;1.00;;;;;;4975606;28;20425;-77
2021/07/17 06:41:01;;;;;;;23.00;20.90;;;24.00;1.00;;;;;;4972668;28;20469;-79
2021/07/17 06:43:28;;;;;;;24.07;21.63;;;24.00;1.00;;;;;;4970955;28;20448;-77
2021/07/17 06:45:55;;;;;;;24.70;22.40;;;23.90;1.00;;;;;;4966246;28;20457;-78
2021/07/17 06:48:25;;;;;;;24.27;22.10;;;23.80;1.00;;;;;;4965862;28;20433;-79
2021/07/17 06:50:52;;;;;;;25.10;22.70;;;23.80;1.00;;;;;;4962743;28;20467;-78
2021/07/17 06:53:19;;;;;;;24.07;21.73;;;23.80;1.00;;;;;;4964857;28;20557;-78
2021/07/17 06:55:46;;;;;;;24.27;21.97;;;23.80;1.00;;;;;;4961538;28;20453;-78
2021/07/17 06:58:13;;;;;;;25.03;22.90;;;23.80;1.00;;;;;;4956810;28;20469;-78
2021/07/17 07:00:40;;;;;;;24.70;22.27;;;23.80;1.00;;;;;;4961680;28;20507;-77
2021/07/17 07:03:07;;;;;;;26.00;23.40;;;23.90;1.00;;;;;;4960457;28;20452;-80
2021/07/17 07:05:36;;;;;;;25.40;23.07;;;23.80;1.00;;;;;;4960098;28;20599;-77
2021/07/17 07:08:03;;;;;;;24.43;22.23;;;23.90;1.00;;;;;;4959466;28;21136;-80
2021/07/17 07:10:32;;;;;;;23.10;21.00;;;24.00;1.00;;;;;;4965403;28;20464;-83
2021/07/17 07:12:59;;;;;;;23.93;21.83;;;24.10;1.00;;;;;;4962168;28;20484;-83
2021/07/17 07:15:26;;;;;;;25.17;22.80;;;24.40;1.00;;;;;;4949829;28;20478;-83
2021/07/17 07:17:53;;;;;;;22.83;20.70;;;24.50;1.00;;;;;;4929553;28;21089;-73
2021/07/17 07:20:19;;;;;;;23.40;21.10;;;24.80;1.00;;;;;;4951298;28;20475;-74
2021/07/17 07:22:47;;;;;;;24.27;21.77;;;24.90;1.00;;;;;;4948054;28;20482;-73
2021/07/17 07:25:14;;;;;;;23.37;21.37;;;25.10;1.00;;;;;;4953083;28;20460;-71
2021/07/17 07:27:42;;;;;;;22.30;20.43;;;25.10;1.00;;;;;;4955371;28;20514;-71
2021/07/17 07:30:09;;;;;;;23.40;20.87;;;25.30;1.00;;;;;;4950839;28;20576;-73
2021/07/17 07:32:35;;;;;;;21.63;19.83;;;25.40;1.00;;;;;;4954715;28;20484;-73
2021/07/17 07:35:02;;;;;;;21.10;19.30;;;25.50;1.00;;;;;;4947998;28;20541;-72
2021/07/17 07:37:29;;;;;;;21.13;19.23;;;25.60;1.00;;;;;;4950314;28;21164;-73
2021/07/17 07:39:57;;;;;;;20.93;19.03;;;25.70;1.00;;;;;;4949533;28;20934;-73
2021/07/17 07:42:24;;;;;;;22.00;19.90;;;25.70;1.00;;;;;;4952715;28;20457;-72
2021/07/17 07:44:51;;;;;;;20.27;18.43;;;25.70;1.00;;;;;;4946870;28;20456;-72
2021/07/17 07:47:18;;;;;;;18.57;16.90;;;25.60;1.00;;;;;;4944731;28;20476;-72
2021/07/17 07:49:45;;;;;;;19.97;18.27;;;25.50;1.00;;;;;;4947564;28;20457;-72
2021/07/17 07:52:11;;;;;;;17.40;15.90;;;25.60;1.00;;;;;;4948065;28;20547;-72
2021/07/17 07:54:38;;;;;;;19.50;17.80;;;25.60;1.00;;;;;;4948452;28;20818;-73
2021/07/17 07:57:06;;;;;;;18.70;17.10;;;25.70;1.00;;;;;;4941159;28;20449;-72
2021/07/17 07:59:33;;;;;;;18.67;16.90;;;25.80;1.00;;;;;;4944595;28;20502;-71
2021/07/17 08:02:00;;;;;;;17.50;16.00;;;25.90;1.00;;;;;;4947565;28;20450;-73
2021/07/17 08:04:27;;;;;;;17.90;16.20;;;25.90;1.00;;;;;;4931837;28;20456;-73
2021/07/17 08:06:53;;;;;;;18.50;16.77;;;26.00;1.00;;;;;;4950259;28;20541;-72
2021/07/17 08:09:20;;;;;;;17.23;15.63;;;26.00;1.00;;;;;;4944018;28;20711;-73
2021/07/17 08:11:47;;;;;;;18.57;16.90;;;26.00;1.00;;;;;;4947429;28;20476;-74
2021/07/17 08:14:15;;;;;;;17.13;15.83;;;26.10;1.00;;;;;;4950821;28;20432;-71
2021/07/17 08:16:43;;;;;;;17.27;15.67;;;26.30;1.00;;;;;;4950196;28;20439;-72
2021/07/17 08:19:09;;;;;;;16.63;15.13;;;26.50;1.00;;;;;;4951001;28;20470;-72
2021/07/17 08:21:36;;;;;;;18.10;16.50;;;26.70;1.00;;;;;;4944483;28;20447;-72
2021/07/17 08:24:03;;;;;;;18.23;16.43;;;26.80;1.00;;;;;;4942681;28;20471;-74
2021/07/17 08:26:30;;;;;;;16.43;15.13;;;26.80;1.00;;;;;;4947366;28;20454;-73
2021/07/17 08:28:57;;;;;;;18.13;16.47;;;27.00;1.00;;;;;;4946716;28;20484;-71
2021/07/17 08:31:25;;;;;;;18.43;16.73;;;27.00;1.00;;;;;;4949560;28;20447;-73
2021/07/17 08:33:52;;;;;;;17.23;15.83;;;27.10;1.00;;;;;;4943956;28;20477;-73
2021/07/17 08:36:19;;;;;;;17.93;16.23;;;27.10;1.00;;;;;;4945372;28;20573;-73
2021/07/17 08:38:46;;;;;;;17.57;15.80;;;27.00;1.00;;;;;;4946247;28;20454;-73
2021/07/17 08:41:13;;;;;;;18.37;16.73;;;27.10;1.00;;;;;;4952213;28;21235;-73
2021/07/17 08:43:40;;;;;;;18.00;16.30;;;27.10;1.00;;;;;;4948588;28;20471;-73
2021/07/17 08:46:07;;;;;;;19.30;17.47;;;26.80;1.00;;;;;;4948168;28;20458;-72
2021/07/17 08:48:36;;;;;;;18.17;16.53;;;26.70;1.00;;;;;;4952725;28;20475;-72
2021/07/17 08:51:04;;;;;;;18.53;16.83;;;26.40;1.00;;;;;;4950962;28;22710;-72
2021/07/17 08:53:32;;;;;;;18.73;16.93;;;26.20;1.00;;;;;;4949151;28;20469;-73
2021/07/17 08:56:00;;;;;;;20.33;18.37;;;26.10;1.00;;;;;;4951858;28;20463;-71
2021/07/17 08:58:26;;;;;;;18.80;17.07;;;26.10;1.00;;;;;;4952152;28;21403;-71
2021/07/17 09:00:53;;;;;;;18.97;17.27;;;26.10;1.00;;;;;;4953093;28;20450;-72
2021/07/17 09:03:20;;;;;;;18.87;17.17;;;26.10;1.00;;;;;;4946316;28;20951;-74
2021/07/17 09:05:49;;;;;;;18.73;16.93;;;26.10;1.00;;;;;;4954278;28;20472;-72
2021/07/17 09:08:18;;;;;;;19.37;17.50;;;26.10;1.00;;;;;;4950124;28;20476;-73
2021/07/17 09:10:46;;;;;;;17.83;16.10;;;26.10;1.00;;;;;;4958679;28;20536;-73
2021/07/17 09:13:15;;;;;;;19.53;17.73;;;26.30;1.00;;;;;;4954879;28;20854;-74
2021/07/17 09:15:52;;;;;;;18.80;16.90;;;26.50;1.00;;;;;;4961345;28;20466;-72
2021/07/17 09:18:29;;;;;;;17.60;16.10;;;26.60;1.00;;;;;;4937269;28;20502;-72
2021/07/17 09:21:01;;;;;;;18.00;16.50;;;26.80;1.00;;;;;;4952921;28;20536;-73
2021/07/17 09:23:29;;;;;;;17.80;16.30;;;26.80;1.00;;;;;;4956066;28;20547;-74
2021/07/17 09:25:56;;;;;;;18.97;17.37;;;26.80;1.00;;;;;;4954288;28;21678;-72
2021/07/17 09:28:25;;;;;;;18.30;16.60;;;26.80;1.00;;;;;;4954950;28;20532;-71
2021/07/17 09:30:54;;;;;;;18.57;17.07;;;26.90;1.00;;;;;;4956638;28;21818;-76
2021/07/17 09:33:21;;;;;;;19.87;18.17;;;27.00;1.00;;;;;;4961028;28;21253;-78
2021/07/17 09:35:49;;;;;;;17.70;16.10;;;27.00;1.00;;;;;;4956049;28;21242;-79
2021/07/17 09:38:19;;;;;;;18.10;16.60;;;27.10;1.00;;;;;;4958105;28;20623;-78
2021/07/17 09:40:48;;;;;;;18.80;17.10;;;27.20;1.00;;;;;;4957438;28;20888;-79
2021/07/17 09:43:36;;;;;;;20.53;18.73;;;27.30;1.00;;;;;;4958770;28;20846;-77
2021/07/17 09:46:17;;;;;;;18.43;16.70;;;27.40;1.00;;;;;;4957179;28;20452;-77
2021/07/17 09:48:48;;;;;;;18.90;17.30;;;27.30;1.00;;;;;;4960995;28;20465;-77
2021/07/17 09:51:19;;;;;;;17.07;15.50;;;27.20;1.00;;;;;;4962006;28;21365;-77
2021/07/17 09:53:48;;;;;;;17.20;15.80;;;27.10;1.00;;;;;;4954617;28;20444;-78
2021/07/17 09:56:16;;;;;;;17.17;15.70;;;27.00;1.00;;;;;;4957628;28;21232;-76
2021/07/17 09:58:43;;;;;;;17.63;16.13;;;27.10;1.00;;;;;;4955342;28;20470;-78
2021/07/17 10:01:22;;;;;;;18.00;16.33;;;27.20;1.00;;;;;;4956978;28;20490;-78
2021/07/17 10:03:51;;;;;;;17.53;16.03;;;27.40;1.00;;;;;;4961423;28;20707;-77
2021/07/17 10:06:30;;;;;;;17.27;15.87;;;27.50;1.00;;;;;;4957491;28;20456;-79
2021/07/17 10:09:00;;;;;;;19.37;17.50;;;27.90;1.00;;;;;;4968311;28;20485;-79
2021/07/17 10:11:28;;;;;;;15.73;14.30;;;28.30;1.00;;;;;;4966897;28;20415;-77
2021/07/17 10:13:56;;;;;;;17.07;15.47;;;28.80;1.00;;;;;;4965488;28;21045;-78
2021/07/17 10:16:24;;;;;;;23.50;21.43;;;29.00;1.00;;;;;;4960260;28;20458;-79
2021/07/17 10:18:52;;;;;;;17.33;15.90;;;29.10;1.00;;;;;;4969116;28;20478;-77
2021/07/17 10:21:20;;;;;;;16.37;15.00;;;29.20;1.00;;;;;;4962889;28;20479;-79
2021/07/17 10:23:47;;;;;;;16.33;15.03;;;29.40;1.00;;;;;;4956007;28;20477;-77
2021/07/17 10:26:15;;;;;;;16.33;15.00;;;29.80;1.00;;;;;;4955046;28;21369;-77
2021/07/17 10:28:42;;;;;;;15.33;14.13;;;30.10;1.00;;;;;;4957320;28;20453;-77
2021/07/17 10:31:09;;;;;;;18.23;16.43;;;30.60;1.00;;;;;;4953943;28;20460;-78
2021/07/17 10:33:36;;;;;;;16.87;15.47;;;31.00;1.00;;;;;;4956561;28;21560;-76
2021/07/17 10:36:09;;;;;;;17.50;15.73;;;30.90;1.00;;;;;;4954345;28;20449;-78
2021/07/17 10:38:40;;;;;;;17.00;15.50;;;30.60;1.00;;;;;;4953025;28;20527;-77
2021/07/17 10:41:08;;;;;;;17.10;15.60;;;30.30;1.00;;;;;;4949629;28;20635;-76
2021/07/17 10:43:36;;;;;;;18.37;16.90;;;30.60;1.00;;;;;;4954241;28;20479;-77
2021/07/17 10:46:03;;;;;;;16.33;14.93;;;31.20;1.00;;;;;;4951999;28;20486;-80
2021/07/17 10:48:31;;;;;;;15.47;14.17;;;31.30;1.00;;;;;;4951186;28;20482;-79
2021/07/17 10:51:02;;;;;;;15.73;14.37;;;31.50;1.00;;;;;;4955475;28;20466;-78
2021/07/17 10:53:42;;;;;;;17.20;15.70;;;32.10;1.00;;;;;;4949949;28;20467;-78
2021/07/17 10:56:48;;;;;;;14.57;13.47;;;33.30;1.00;;;;;;4947782;28;20463;-78
2021/07/17 10:59:43;;;;;;;16.37;14.97;;;34.90;1.00;;;;;;4943499;28;20955;-77
2021/07/17 11:02:11;;;;;;;14.30;13.20;;;36.20;1.00;;;;;;4950040;28;20472;-79
2021/07/17 11:04:41;;;;;;;14.03;12.63;;;36.80;1.00;;;;;;4945954;28;20471;-79
2021/07/17 11:07:44;;;;;;;14.97;13.73;;;37.30;1.00;;;;;;4951580;28;20490;-76
2021/07/17 11:10:21;;;;;;;13.77;12.67;;;38.40;1.00;;;;;;4947791;28;20456;-78
2021/07/17 11:12:52;;;;;;;14.60;13.50;;;39.50;1.00;;;;;;4952859;28;20523;-77
2021/07/17 11:15:38;;;;;;;14.60;13.50;;;39.20;1.00;;;;;;4951539;28;21229;-78
2021/07/17 11:18:39;;;;;;;14.83;13.63;;;37.90;1.00;;;;;;4952646;28;20437;-77
2021/07/17 11:21:09;;;;;;;15.33;14.23;;;36.30;1.00;;;;;;4949730;28;20966;-77
2021/07/17 11:23:44;;;;;;;14.80;13.70;;;36.10;1.00;;;;;;4951804;28;20445;-78
2021/07/17 11:26:23;;;;;;;15.17;13.97;;;37.20;1.00;;;;;;4953815;28;20486;-79
2021/07/17 11:29:03;;;;;;;14.17;12.97;;;38.10;1.00;;;;;;4951902;28;20429;-79
2021/07/17 11:31:52;;;;;;;14.23;13.20;;;39.10;1.00;;;;;;4948999;28;20470;-79
2021/07/17 11:34:36;;;;;;;15.10;14.00;;;39.70;1.00;;;;;;4950137;28;20464;-79
2021/07/17 11:37:07;;;;;;;13.83;12.77;;;40.10;1.00;;;;;;4947154;28;20455;-78
2021/07/17 11:39:37;;;;;;;13.23;12.30;;;40.60;1.00;;;;;;4945083;28;21047;-80
2021/07/17 11:42:05;;;;;;;15.37;14.10;;;40.90;1.00;;;;;;4951018;28;20540;-78
2021/07/17 11:44:34;;;;;;;14.30;13.23;;;39.90;1.00;;;;;;4945483;28;20481;-77
2021/07/17 11:47:04;;;;;;;13.10;12.20;;;39.80;1.00;;;;;;4951388;28;20860;-77
2021/07/17 11:49:33;;;;;;;13.90;12.80;;;38.90;1.00;;;;;;4945927;28;21301;-77
2021/07/17 11:52:02;;;;;;;13.87;12.67;;;38.70;1.00;;;;;;4952567;28;20461;-78
2021/07/17 11:54:30;;;;;;;13.30;12.40;;;39.00;1.00;;;;;;4953954;28;21123;-77
2021/07/17 11:57:02;;;;;;;13.90;12.80;;;39.50;1.00;;;;;;4947942;28;20476;-78
2021/07/17 11:59:29;;;;;;;13.10;12.20;;;40.00;1.00;;;;;;4947335;28;20457;-76
2021/07/17 12:02:01;;;;;;;13.53;12.53;;;39.90;1.00;;;;;;4950572;28;20456;-78
2021/07/17 12:04:33;;;;;;;13.80;12.70;;;40.20;1.00;;;;;;4946305;28;20448;-78
2021/07/17 12:07:03;;;;;;;12.70;11.73;;;39.60;1.00;;;;;;4948782;28;20449;-79
2021/07/17 12:09:35;;;;;;;14.50;13.10;;;39.20;1.00;;;;;;4956568;28;20455;-79
2021/07/17 12:12:27;;;;;;;13.77;12.77;;;38.80;1.00;;;;;;4957437;28;20428;-79
2021/07/17 12:15:12;;;;;;;13.30;12.30;;;39.40;1.00;;;;;;4954679;28;20479;-79
2021/07/17 12:17:41;;;;;;;12.80;11.80;;;40.30;1.00;;;;;;4954244;28;20586;-79
2021/07/17 12:20:19;;;;;;;13.37;12.47;;;40.50;1.00;;;;;;4960606;28;20464;-78
2021/07/17 12:22:55;;;;;;;12.80;11.80;;;41.00;1.00;;;;;;4960388;28;20475;-81
2021/07/17 12:25:24;;;;;;;12.90;11.90;;;41.10;1.00;;;;;;4961786;28;20436;-81
2021/07/17 12:27:56;;;;;;;13.30;12.40;;;40.20;1.00;;;;;;4964577;28;23071;-78
2021/07/17 12:30:25;;;;;;;13.20;12.30;;;38.80;1.00;;;;;;4939315;28;20472;-81
2021/07/17 12:32:52;;;;;;;13.30;12.13;;;39.20;1.00;;;;;;4957558;28;20438;-78
2021/07/17 12:35:24;;;;;;;13.67;12.37;;;39.90;1.00;;;;;;4961344;28;20499;-78
2021/07/17 12:37:51;;;;;;;12.97;12.07;;;41.00;1.00;;;;;;4954119;28;20908;-78
2021/07/17 12:40:19;;;;;;;13.93;12.73;;;42.00;1.00;;;;;;4958002;28;20444;-79
2021/07/17 12:42:47;;;;;;;11.53;10.73;;;42.80;1.00;;;;;;4959399;28;20466;-78